Home > Products > Valid Products > TAF

000
FTUS42 KILM 261100
TAFMYR
TAF
KMYR 261121Z 2612/2712 25010KT P6SM SCT060 BKN120
     FM261700 27014G20KT P6SM SCT025 SCT100
     FM262100 29013G20KT P6SM VCSH BKN035 OVC100
     FM270300 30012G18KT P6SM SCT025=



000
FTUS42 KILM 261100
TAFCRE
TAF
KCRE 261121Z 2612/2712 25009KT P6SM SCT060 BKN120
     FM261700 27012G19KT P6SM SCT025 SCT100
     FM262100 28011G18KT P6SM VCSH BKN035 OVC100
     FM270300 30010G16KT P6SM SCT025=



000
FTUS42 KILM 261100
TAFLBT
TAF
KLBT 261121Z 2612/2712 24004KT P6SM BKN060 BKN100
     FM261500 26009KT P6SM SCT020 BKN050
     FM262000 30011G18KT P6SM VCSH BKN030 OVC100
     FM270300 31012G19KT P6SM BKN025 BKN050=



000
FTUS42 KILM 261100
TAFFLO
TAF
KFLO 261121Z 2612/2712 24006KT P6SM SCT060 BKN120
     FM261500 27012G18KT P6SM SCT025 SCT100
     FM262000 30012G20KT P6SM VCSH BKN035 OVC100
     FM270200 31011G19KT P6SM SCT025=



000
FTUS42 KILM 261100
TAFILM
TAF
KILM 261121Z 2612/2712 23008KT P6SM SCT060 BKN100
     FM261800 26012G19KT P6SM SCT025 SCT100
     FM262100 28011G17KT P6SM VCSH BKN030 OVC100
     FM270600 30013G20KT P6SM BKN025 BKN050=



000
FTUS42 KILM 260500
TAFMYR
TAF
KMYR 260533Z 2606/2706 22006KT P6SM FEW030 SCT070 SCT100
     FM260900 24007KT P6SM SCT035 BKN090
     FM261100 26010KT P6SM SCT030 BKN050 BKN100
     FM261700 27012G22KT P6SM VCSH BKN030
     FM270200 29014G20KT P6SM SCT025 BKN050
      AMD LTD TO CLD VIS AND WIND TIL 261100=



000
FTUS42 KILM 260500
TAFCRE
TAF
KCRE 260533Z 2606/2706 23006KT P6SM FEW030 SCT070 SCT100
     FM260900 22007KT P6SM SCT035 BKN090
     FM261100 25009KT P6SM SCT030 BKN050 BKN100
     FM261700 26011G18KT P6SM VCSH BKN030
     FM270200 29011G20KT P6SM SCT025 BKN050=



000
FTUS42 KILM 260500
TAFLBT
TAF
KLBT 260533Z 2606/2706 19006KT P6SM FEW120 SCT250
     FM260800 21006KT P6SM BKN035 BKN090
     FM261400 26008KT P6SM VCSH FEW007 SCT015 BKN050
     FM261700 25010G17KT P6SM VCSH SCT030 BKN050
     FM270300 32014G20KT P6SM SCT025 OVC050=



000
FTUS42 KILM 260500
TAFFLO
TAF
KFLO 260533Z 2606/2706 19005KT P6SM FEW120 SCT250
     FM260800 21006KT P6SM BKN035 BKN090
     FM261400 26012G19KT P6SM VCSH FEW007 SCT015 BKN050
     FM261700 29012G20KT P6SM VCSH SCT030 BKN050
     FM270200 31014G22KT P6SM SCT025 OVC050=



000
FTUS42 KILM 260500
TAFILM
TAF
KILM 260533Z 2606/2706 23005KT P6SM FEW030 SCT070 SCT100
     FM261000 23005KT P6SM SCT035 BKN100
     FM261200 27009KT P6SM SCT030 BKN050 BKN100
     FM261800 28011G20KT P6SM VCSH BKN030
     FM270200 30010G18KT P6SM SCT025 BKN050=



000
FTUS42 KILM 252300
TAFLBT
TAF
KLBT 252331Z 2600/2624 18006KT P6SM FEW120 SCT250
     FM260800 21006KT P6SM BKN035 BKN090
     FM261400 26008KT P6SM VCSH FEW007 SCT015 BKN050
     FM261700 25010G17KT P6SM VCSH SCT030 OVC050=



000
FTUS42 KILM 252300
TAFCRE
TAF
KCRE 252331Z 2600/2624 16007KT P6SM FEW250
     FM260500 21006KT P6SM FEW030 FEW100 SCT150
     FM260900 22007KT P6SM SCT035 BKN090
     FM261100 25009KT P6SM SCT030 BKN050 BKN100
     FM261700 27011G19KT P6SM VCSH BKN030=



000
FTUS42 KILM 252300
TAFILM
TAF
KILM 252331Z 2600/2624 15005KT P6SM FEW250
     FM260500 20005KT P6SM FEW030 FEW100 SCT250
     FM261000 23005KT P6SM SCT035 BKN100
     FM261200 27009KT P6SM SCT030 BKN050 BKN100
     FM261800 28011G20KT P6SM VCSH BKN030=



000
FTUS42 KILM 252300
TAFFLO
TAF
KFLO 252331Z 2600/2624 17005KT P6SM FEW120 SCT250
     FM260800 21006KT P6SM BKN035 BKN090
     FM261400 26012G19KT P6SM VCSH FEW007 SCT015 BKN050
     FM261700 29012G20KT P6SM VCSH SCT030 OVC050=



000
FTUS42 KILM 252300
TAFMYR
TAF
KMYR 252331Z 2600/2624 17010KT P6SM FEW250
     FM260500 21006KT P6SM FEW120 FEW250
     FM260900 24007KT P6SM SCT035 BKN090
     FM261100 26010KT P6SM SCT030 BKN050 BKN100
     FM261700 29012G22KT P6SM VCSH BKN030
      AMD LTD TO CLD VIS AND WIND 2604/2611=



000
FTUS42 KILM 251700
TAFFLO
TAF
KFLO 251721Z 2518/2618 18009KT P6SM SKC
     FM252200 18006KT P6SM FEW120 SCT250
     FM260800 21006KT 6SM BR BKN035 BKN090
     FM261400 26012G19KT P6SM SCT015 SCT050=



000
FTUS42 KILM 251700
TAFMYR
TAF
KMYR 251721Z 2518/2618 17011KT P6SM SKC
     FM260100 20006KT P6SM FEW120 FEW250
     FM260900 22007KT P6SM SCT035 BKN090
     FM261100 26010KT P6SM BKN030=



000
FTUS42 KILM 251700
TAFILM
TAF
KILM 251721Z 2518/2618 17008KT P6SM SKC
     FM252300 19003KT P6SM FEW120 FEW250
     FM261000 22005KT P6SM SCT035 BKN100
     FM261200 27009KT P6SM BKN030=



000
FTUS42 KILM 251700
TAFCRE
TAF
KCRE 251721Z 2518/2618 18009KT P6SM SKC
     FM260000 20006KT P6SM FEW120 FEW250
     FM260900 22007KT P6SM SCT035 BKN090
     FM261100 25009KT P6SM BKN030=



000
FTUS42 KILM 251700
TAFLBT
TAF
KLBT 251721Z 2518/2618 18008KT P6SM SKC
     FM252200 18006KT P6SM FEW120 SCT250
     FM260800 21006KT 6SM BR BKN035 BKN090
     FM261200 25010G17KT P6SM SCT015 SCT050=



000
FTUS42 KILM 251100
TAFFLO
TAF
KFLO 251128Z 2512/2612 25004KT P6SM SKC
     FM251700 18009KT P6SM SKC
     FM252200 18006KT P6SM FEW120 SCT250
     FM260700 21008KT P6SM SCT045 BKN100=



000
FTUS42 KILM 251100
TAFLBT
TAF
KLBT 251128Z 2512/2612 25004KT P6SM SKC
     FM251700 18008KT P6SM SKC
     FM252200 18006KT P6SM FEW120 SCT250
     FM260700 21008KT P6SM SCT045 BKN100=



000
FTUS42 KILM 251100
TAFCRE
TAF
KCRE 251128Z 2512/2612 34005KT P6SM SKC
     FM251800 18009KT P6SM SKC
     FM260000 20005KT P6SM FEW120 FEW250
     FM260800 22006KT P6SM SCT045 BKN120=



000
FTUS42 KILM 251100
TAFILM
TAF
KILM 251128Z 2512/2612 32005KT P6SM SKC
     FM251900 17007KT P6SM SKC
     FM252300 19003KT P6SM FEW120 FEW250
     FM261000 22005KT P6SM SCT045 BKN120=



000
FTUS42 KILM 251100
TAFMYR
TAF
KMYR 251128Z 2512/2612 33005KT P6SM SKC
     FM251800 17011KT P6SM SKC
     FM260100 20006KT P6SM FEW120 FEW250
     FM260800 22007KT P6SM SCT045 BKN120=



000
FTUS42 KILM 250500
TAFCRE
TAF
KCRE 250533Z 2506/2606 26006KT P6SM SKC
     FM251700 19009KT P6SM SKC
     FM260000 22006KT P6SM SKC=



000
FTUS42 KILM 250500
TAFLBT
TAF
KLBT 250533Z 2506/2606 25006KT P6SM SKC
     FM251500 22007KT P6SM SKC
     FM260000 VRB03KT P6SM SCT250=



000
FTUS42 KILM 250500
TAFMYR
TAF
KMYR 250533Z 2506/2606 26007KT P6SM SKC
     FM251700 18010KT P6SM SKC
     FM260000 20006KT P6SM SKC
      AMD LTD TO CLD VIS AND WIND TIL 251100=



000
FTUS42 KILM 250500
TAFFLO
TAF
KFLO 250533Z 2506/2606 25006KT P6SM SKC
     FM251500 21009KT P6SM SKC
     FM260000 18006KT P6SM SCT250=



000
FTUS42 KILM 250500
TAFILM
TAF
KILM 250533Z 2506/2606 26006KT P6SM SKC
     FM251800 22007KT P6SM SKC
     FM260000 VRB03KT P6SM SKC=



000
FTUS42 KILM 242300
TAFMYR
TAF
KMYR 242322Z 2500/2524 28007KT P6SM SKC
     FM251700 19010KT P6SM SKC
      AMD LTD TO CLD VIS AND WIND 2504/2511=



000
FTUS42 KILM 242300
TAFCRE
TAF
KCRE 242322Z 2500/2524 28004KT P6SM SKC
     FM251700 19009KT P6SM SKC=



000
FTUS42 KILM 242300
TAFLBT
TAF
KLBT 242322Z 2500/2524 VRB04KT P6SM SKC
     FM251500 22007KT P6SM SKC=



000
FTUS42 KILM 242300
TAFILM
TAF
KILM 242322Z 2500/2524 27006KT P6SM SKC
     FM251800 22007KT P6SM SKC=



000
FTUS42 KILM 242300
TAFFLO
TAF
KFLO 242322Z 2500/2524 27006KT P6SM SKC
     FM251500 21009KT P6SM SKC=



000
FTUS42 KILM 241700
TAFFLO
TAF
KFLO 241730Z 2418/2518 28013G20KT P6SM VCSH BKN010 BKN030
     FM242000 29014G24KT P6SM SCT030
     FM242300 28006KT P6SM SKC=



000
FTUS42 KILM 241700
TAFCRE
TAF
KCRE 241730Z 2418/2518 28014G25KT P6SM VCSH BKN010 OVC025
      TEMPO 2418/2420 4SM -RA BR
     FM242100 29014G25KT P6SM SCT030
     FM250000 28006KT P6SM SKC=



000
FTUS42 KILM 241700
TAFLBT
TAF
KLBT 241730Z 2418/2518 28013G20KT P6SM VCSH BKN010 BKN030
      TEMPO 2418/2420 4SM -RA BR
     FM242000 28014G24KT P6SM SCT030
     FM242300 28005KT P6SM SKC=



000
FTUS42 KILM 241700
TAFILM
TAF
KILM 241730Z 2418/2518 28016G25KT P6SM BKN007 OVC010
     FM241900 28016G25KT P6SM VCSH BKN010 OVC025
      TEMPO 2419/2421 3SM -RA BR
     FM242100 28016G25KT P6SM SCT025=



000
FTUS42 KILM 241700
TAFMYR
TAF
KMYR 241730Z 2418/2518 29014G25KT P6SM VCSH BKN010 OVC025
      TEMPO 2418/2420 5SM -RA BR
     FM242100 29014G25KT P6SM SCT030
     FM250100 28006KT P6SM SKC=



000
FTUS42 KILM 241500 AAA
TAFILM
TAF AMD
KILM 241518Z 2415/2512 30010G18KT P6SM OVC007
     FM241800 28016G25KT P6SM BKN010 OVC030
     FM242100 29012KT P6SM SCT025=



000
FTUS42 KILM 241500 CCD
TAFMYR
TAF COR
KMYR 241517Z 2415/2512 29010G15KT P6SM OVC008
     FM241700 29015G25KT P6SM BKN010 OVC030
     FM242100 30012KT P6SM SCT025=



000
FTUS42 KILM 241500 AAA
TAFCRE
TAF AMD
KCRE 241517Z 2415/2512 29010G15KT P6SM OVC007
     FM241700 28013G22KT P6SM BKN010 OVC025
     FM242100 29010KT P6SM SCT025=



000
FTUS42 KILM 241500 AAA
TAFMYR
TAF AMD
KMYR 241515Z 2415/2512 29010G15KT 3SM -RA BR OVC008
     FM241700 29015G25KT P6SM BKN010 OVC030
     FM242100 30012KT P6SM SCT025=



000
FTUS42 KILM 241500 CCC
TAFLBT
TAF COR
KLBT 241514Z 2415/2512 28010G15KT P6SM OVC008
     FM241700 29012G20KT P6SM BKN010 OVC030
     FM242000 28010KT P6SM SCT030=



000
FTUS42 KILM 241500 AAB
TAFFLO
TAF AMD
KFLO 241513Z 2415/2512 28010G15KT P6SM OVC006
     FM241700 29012G20KT P6SM BKN010 OVC030
     FM242000 29010KT P6SM SCT030=



000
FTUS42 KILM 241500 AAB
TAFLBT
TAF AMD
KLBT 241512Z 2415/2512 29009KT P6SM OVC008
     FM241700 30012G20KT P6SM BKN010 OVC030
     FM242000 28010KT P6SM SCT030=



000
FTUS42 KILM 241300 AAA
TAFLBT
TAF AMD
KLBT 241322Z 2413/2512 30009KT P6SM BKN006 OVC013
     FM241700 30012G20KT P6SM BKN015 OVC030
     FM242000 28010KT P6SM SCT030=



000
FTUS42 KILM 241300 AAA
TAFFLO
TAF AMD
KFLO 241316Z 2413/2512 28008KT P6SM BKN007 OVC013
     FM241700 30012G20KT P6SM BKN015 OVC030
     FM242000 29010KT P6SM SCT030=



000
FTUS42 KILM 241200 CCB
TAFLBT
TAF COR
KLBT 241217Z 2412/2512 35006KT 6SM -RA BR SCT005 BKN025 OVC060
      TEMPO 2412/2413 2SM -RA BR
     FM241400 30008KT P6SM VCSH BKN005 BKN015 OVC060
     FM241700 30012G20KT P6SM BKN015 OVC030
     FM242000 28010KT P6SM SCT030=



000
FTUS42 KILM 241200 CCB
TAFFLO
TAF COR
KFLO 241217Z 2412/2512 31008KT 6SM -RA BR SCT005 BKN025 OVC060
      TEMPO 2412/2413 BKN005
     FM241300 31010KT P6SM VCSH BKN005 BKN015 OVC060
     FM241700 30012G20KT P6SM BKN015 OVC030
     FM242000 29010KT P6SM SCT030=



000
FTUS42 KILM 241200 CCB
TAFILM
TAF COR
KILM 241215Z 2412/2512 23015G28KT 3SM SHRA SCT006 OVC015
      TEMPO 2412/2414 29020G35KT 1SM +SHRA BKN006
     FM241400 31010KT 2SM -RA BR BKN004 OVC010
     FM241800 28016G25KT P6SM BKN015 OVC025
     FM242100 29012KT P6SM SCT025=



000
FTUS42 KILM 241200 CCC
TAFMYR
TAF COR
KMYR 241212Z 2412/2512 32012KT 6SM -RA SCT005 SCT015 BKN025
      TEMPO 2412/2413 2SM -RA BR BKN004
     FM241300 30010KT 3SM -RA BR BKN004 OVC010
     FM241700 29015G25KT P6SM BKN015 OVC025
     FM242100 30012KT P6SM SCT025=



000
FTUS42 KILM 241200 CCA
TAFLBT
TAF COR
KLBT 241210Z 2412/2512 35006KT 6SM -RA BR SCT005 BKN025 OVC060
     FM241400 32008KT P6SM VCSH BKN005 BKN015 OVC060
     FM241700 30012G20KT P6SM BKN015 OVC030
     FM242000 28010KT P6SM SCT030=



000
FTUS42 KILM 241200 CCA
TAFFLO
TAF COR
KFLO 241208Z 2412/2512 31008KT 6SM -RA BR SCT005 BKN025 OVC060
     FM241300 31010KT P6SM VCSH BKN005 BKN015 OVC060
     FM241700 30012G20KT P6SM BKN015 OVC030
     FM242000 29010KT P6SM SCT030=



000
FTUS42 KILM 241200 CCB
TAFMYR
TAF COR
KMYR 241203Z 2412/2512 31012KT 6SM -RA SCT005 OVC014
      TEMPO 2412/2413 2SM -RA BR BKN004
     FM241300 31010KT 3SM -RA BR BKN004 OVC010
     FM241700 29015G25KT P6SM BKN015 OVC025
     FM242100 30012KT P6SM SCT025=



000
FTUS42 KILM 241200 CCA
TAFCRE
TAF COR
KCRE 241202Z 2412/2512 30012KT 6SM -RA SCT005 OVC014
      TEMPO 2412/2413 2SM -RA BR BKN004
     FM241300 29008KT 3SM -RA BR BKN004 OVC010
     FM241700 28013G22KT P6SM BKN015 OVC025
     FM242100 29010KT P6SM SCT025=



000
FTUS42 KILM 241100 CCA
TAFILM
TAF COR
KILM 241136Z 2412/2512 22015G28KT P6SM -SHRA VCTS SCT006 OVC012CB
      TEMPO 2412/2414 22020G33KT 1SM +SHRA BKN006
     FM241400 31010KT 2SM -RA BR BKN004 OVC010
     FM241800 28016G25KT P6SM BKN015 OVC025
     FM242100 29012KT P6SM SCT025=



000
FTUS42 KILM 241100 CCA
TAFMYR
TAF COR
KMYR 241127Z 2412/2512 22015G28KT 6SM -RA SCT008 OVC014
      TEMPO 2412/2413 3SM RA FEW003 BKN008
     FM241300 27010KT 4SM -RA BR BKN004 OVC010
     FM241700 29015G25KT P6SM BKN015 OVC025
     FM242100 30012KT P6SM SCT025=



000
FTUS42 KILM 241100
TAFILM
TAF
KILM 241123Z 2412/2512 22015G28KT P6SM -SHRA VCTS SCT006 OVC012CB
      TEMPO 2412/2414 22020G36KT 3/4SM +TSRA BKN006CB
     FM241400 31010KT 2SM -RA BR BKN004 OVC010
     FM241800 28016G25KT P6SM BKN015 OVC025
     FM242100 29012KT P6SM SCT025=



000
FTUS42 KILM 241100
TAFMYR
TAF
KMYR 241123Z 2412/2512 22015G28KT 6SM -RA SCT003 OVC014
      TEMPO 2412/2413 3SM RA BKN003
     FM241300 27010KT 4SM -RA BR BKN004 OVC010
     FM241700 29015G25KT P6SM BKN015 OVC025
     FM242100 30012KT P6SM SCT025=



000
FTUS42 KILM 241100
TAFFLO
TAF
KFLO 241123Z 2412/2512 32007KT 5SM -RA BR OVC006
      TEMPO 2412/2414 2SM RA BR SCT006 BKN025
     FM241700 30012G20KT P6SM BKN015 OVC030
     FM242000 29010KT P6SM SCT030=



000
FTUS42 KILM 241100
TAFCRE
TAF
KCRE 241123Z 2412/2512 22015G28KT 6SM -RA SCT003 OVC014
      TEMPO 2412/2413 3SM -RA BKN003
     FM241300 29008KT 4SM -RA BR BKN004 OVC010
     FM241700 28013G22KT P6SM BKN015 OVC025
     FM242100 29010KT P6SM SCT025=



000
FTUS42 KILM 241100
TAFLBT
TAF
KLBT 241123Z 2412/2512 32007KT 5SM -RA BR OVC005
      TEMPO 2412/2414 2SM RA BR SCT005 BKN025
     FM241600 29012G20KT P6SM BKN015 OVC030
     FM242000 28010KT P6SM SCT030=



000
FTUS42 KILM 240500
TAFCRE
TAF
KCRE 240531Z 2406/2506 22015G25KT 6SM SHRA BR SCT006 OVC040
      WS020/22050KT
      TEMPO 2408/2412 2SM +SHRA BKN006
     FM241200 25012G18KT 6SM -RA BKN004 OVC010
     FM241700 28013G22KT P6SM BKN015 OVC025
     FM242100 29010KT P6SM SCT025=



000
FTUS42 KILM 240500
TAFMYR
TAF
KMYR 240531Z 2406/2506 21015G25KT 6SM SHRA BR SCT006 OVC040
      WS020/22050KT
      TEMPO 2408/2411 2SM +SHRA BKN006
     FM241100 26013G19KT 6SM -RA BKN004 OVC010
     FM241700 29015G25KT P6SM BKN015 OVC025
     FM242100 30012KT P6SM SCT025
      AMD LTD TO CLD VIS AND WIND TIL 241100=



000
FTUS42 KILM 240500
TAFLBT
TAF
KLBT 240531Z 2406/2506 VRB05KT 4SM -RA BR BKN004 OVC010
      TEMPO 2406/2409 2SM SHRA
     FM240900 30010KT 4SM -RA BR OVC005
     FM241600 29012G20KT P6SM BKN015 OVC030
     FM242000 28010KT P6SM SCT030=



000
FTUS42 KILM 240500
TAFFLO
TAF
KFLO 240531Z 2406/2506 VRB06KT 4SM -RA BR BKN004 OVC010
      TEMPO 2406/2409 2SM SHRA
     FM240900 28010KT 4SM -RA BR OVC005
     FM241600 30012G20KT P6SM BKN015 OVC030
     FM242000 29010KT P6SM SCT030=



000
FTUS42 KILM 240500
TAFILM
TAF
KILM 240531Z 2406/2506 20015G25KT 6SM SHRA BR SCT006 OVC030
      WS020/22050KT
      TEMPO 2409/2413 2SM +SHRA BKN006
     FM241300 27012G18KT 6SM -RA BKN004 OVC010
     FM241800 28016G25KT P6SM BKN015 OVC025
     FM242100 29012KT P6SM SCT025=



000
FTUS42 KILM 240200 AAA
TAFFLO
TAF AMD
KFLO 240209Z 2402/2424 10008KT 4SM RA BR BKN004 OVC010
      WS020/17040KT
     FM240500 24012G18KT 2SM RA BR OVC004
     FM241200 28010KT 3SM -RA BR BKN006 OVC012
     FM241500 30012G19KT P6SM BKN015
     FM242000 29011KT P6SM SCT030=



000
FTUS42 KILM 232300
TAFILM
TAF
KILM 232323Z 2400/2424 08009KT 5SM -RA BR BKN006 OVC012
      WS015/18040KT
     FM240200 14012G20KT 5SM -SHRA BR FEW006 BKN020 OVC050
     FM240600 23016G25KT 4SM SHRA BR BKN006 OVC012
     FM241200 27012KT 6SM -RA BKN004 OVC010
     FM241800 29015G25KT P6SM BKN015=



000
FTUS42 KILM 232300
TAFFLO
TAF
KFLO 232323Z 2400/2424 09012KT 4SM RA BR BKN006 OVC012
      WS020/17040KT
     FM240500 24012G18KT 2SM RA BR OVC004
     FM241200 28010KT 3SM -RA BR BKN006 OVC012
     FM241500 30012G19KT P6SM BKN015
     FM242000 29011KT P6SM SCT030=



000
FTUS42 KILM 232300
TAFLBT
TAF
KLBT 232323Z 2400/2424 08011KT 4SM RA BR BKN005 OVC012
      WS020/17040KT
     FM240600 24012G17KT 2SM RA BR OVC004
     FM241200 29010KT 3SM -RA BR BKN006 OVC012
     FM241500 30012G19KT P6SM BKN015
     FM242000 28011KT P6SM SCT030=



000
FTUS42 KILM 232300
TAFMYR
TAF
KMYR 232323Z 2400/2424 06009KT 6SM -RA BR SCT006 OVC012
      WS015/19040KT
     FM240100 15013G20KT 5SM -SHRA BR FEW006 BKN020 OVC050
     FM240500 21016G25KT 4SM SHRA BR BKN006 OVC012
     FM241100 26013KT 6SM -RA BKN004 OVC010
     FM241700 29014G24KT P6SM BKN015
      AMD LTD TO CLD VIS AND WIND 2404/2411=



000
FTUS42 KILM 232300
TAFCRE
TAF
KCRE 232323Z 2400/2424 07009KT 6SM -RA BR SCT006 OVC012
      WS015/19040KT
     FM240100 15013G20KT 5SM -SHRA BR FEW006 BKN020 OVC050
     FM240500 22015G25KT 4SM SHRA BR BKN006 OVC012
     FM241100 26011KT 6SM -RA BKN004 OVC010
     FM241700 29013G22KT P6SM BKN015=



000
FTUS42 KILM 232100 AAA
TAFFLO
TAF AMD
KFLO 232111Z 2321/2418 08012KT 3SM RA BR BKN008 OVC015
     FM240000 11007KT 1SM RA BR OVC004
     FM240500 26010KT 2SM -RA BR OVC004
     FM241100 28010KT 3SM BR OVC005
     FM241500 28012G18KT P6SM BKN015=



000
FTUS42 KILM 231700
TAFCRE
TAF
KCRE 231722Z 2318/2418 05012G18KT 5SM -RA BR SCT008 OVC015
     FM232000 06012G18KT 3SM SHRA BR BKN006 OVC015
     FM232200 13010G16KT 1SM +SHRA BR OVC004
     FM240000 15014G24KT P6SM -SHRA SCT006 SCT015 OVC050
      TEMPO 2401/2405 20020G35KT 2SM TSRA BKN006CB
     FM240500 20017G28KT 6SM -SHRA SCT002 OVC008
     FM240900 25008KT 3SM BR OVC006
      TEMPO 2409/2413 2SM -DZ BR OVC004
     FM241600 27010G18KT P6SM OVC010=



000
FTUS42 KILM 231700
TAFILM
TAF
KILM 231722Z 2318/2418 06012G18KT 6SM -RA BR SCT010 OVC018
     FM232000 08012G18KT 3SM SHRA BR BKN008 OVC015
     FM232200 13010G16KT 1SM +SHRA BR OVC004
     FM240000 16013G23KT P6SM -SHRA SCT002 SCT015 OVC070
      TEMPO 2402/2406 20020G35KT 2SM TSRA BKN006CB
     FM240600 20017G27KT 6SM -SHRA SCT006 OVC010
     FM241100 27008KT 3SM BR OVC006
      TEMPO 2411/2415 2SM -DZ BR OVC004=



000
FTUS42 KILM 231700
TAFMYR
TAF
KMYR 231722Z 2318/2418 07012G18KT 5SM -RA BR SCT008 OVC015
     FM232000 09012G18KT 3SM SHRA BR BKN006 OVC015
     FM232200 14010G16KT 1SM +SHRA BR OVC004
     FM240000 16016G26KT P6SM -SHRA SCT006 SCT015 OVC050
      TEMPO 2401/2405 20020G35KT 2SM TSRA BKN006CB
     FM240500 21017G28KT 6SM -SHRA FEW002 OVC008
     FM240900 26012KT 3SM BR OVC006
      TEMPO 2409/2413 2SM -DZ BR OVC004
     FM241600 29012G20KT P6SM OVC010=



000
FTUS42 KILM 231700
TAFFLO
TAF
KFLO 231722Z 2318/2418 07009KT P6SM -RA SCT015 OVC025
     FM231900 08012KT 5SM -RA BR SCT006 OVC012
     FM232100 10010KT 2SM RA BR BKN006 OVC012
     FM240000 11007KT 1SM RA BR OVC004
     FM240500 26010KT 2SM -RA BR OVC004
     FM241100 28010KT 3SM BR OVC005
     FM241500 28012G18KT P6SM BKN015=



000
FTUS42 KILM 231700
TAFLBT
TAF
KLBT 231722Z 2318/2418 08009KT P6SM -RA SCT015 OVC025
     FM232000 09012KT 5SM -RA BR SCT006 OVC012
     FM232200 10009KT 2SM RA BR BKN006 OVC012
     FM240200 12005KT 1SM -RA BR OVC004
     FM240400 29008KT 2SM RA BR OVC006
     FM241100 28010KT 3SM BR OVC005
     FM241500 28012G18KT P6SM BKN015=



    US Dept of Commerce
    National Oceanic and Atmospheric Administration
    National Weather Service
    1325 East West Highway
    Silver Spring, MD 20910
    Page Author: NWS Internet Services Team
Disclaimer
Information Quality
Credits
Glossary
Privacy Policy
Freedom of Information Act (FOIA)
About Us
Career Opportunities